createdAt,value
2023-01-18T00:00:37.681Z,26.77
2023-01-18T00:03:08.620Z,26.07
2023-01-18T00:05:39.824Z,25.23
2023-01-18T00:08:07.908Z,21.77
2023-01-18T00:10:37.389Z,19.90
2023-01-18T00:13:06.469Z,18.70
2023-01-18T00:15:34.896Z,23.40
2023-01-18T00:18:03.356Z,22.80
2023-01-18T00:20:32.312Z,20.20
2023-01-18T00:23:01.747Z,20.97
2023-01-18T00:25:30.637Z,18.47
2023-01-18T00:27:59.927Z,19.87
2023-01-18T00:30:29.617Z,20.10
2023-01-18T00:32:59.791Z,17.23
2023-01-18T00:35:28.224Z,19.40
2023-01-18T00:37:56.201Z,16.57
2023-01-18T00:40:28.265Z,17.37
2023-01-18T00:43:13.808Z,19.17
2023-01-18T00:45:43.327Z,17.73
2023-01-18T00:48:11.352Z,19.10
2023-01-18T00:50:39.371Z,17.87
2023-01-18T00:53:07.352Z,15.03
2023-01-18T00:55:35.391Z,19.47
2023-01-18T00:58:03.336Z,16.30
2023-01-18T01:04:12.203Z,16.53
2023-01-18T01:06:46.767Z,15.07
2023-01-18T01:09:17.919Z,15.00
2023-01-18T01:12:00.509Z,15.90
2023-01-18T01:14:46.159Z,16.03
2023-01-18T01:17:31.976Z,15.10
2023-01-18T01:20:19.020Z,17.47
2023-01-18T01:23:04.891Z,15.77
2023-01-18T01:25:50.131Z,14.70
2023-01-18T01:28:18.176Z,16.90
2023-01-18T01:30:46.206Z,14.80
2023-01-18T01:33:14.347Z,12.80
2023-01-18T01:35:44.240Z,19.73
2023-01-18T01:38:12.244Z,18.63
2023-01-18T01:40:40.281Z,18.07
2023-01-18T01:43:13.444Z,17.70
2023-01-18T01:45:41.533Z,17.77
2023-01-18T01:48:11.081Z,14.77
2023-01-18T01:50:40.933Z,16.27
2023-01-18T01:53:11.836Z,16.87
2023-01-18T01:55:41.148Z,14.37
2023-01-18T01:58:12.535Z,15.23
2023-01-18T02:00:40.757Z,15.73
2023-01-18T02:03:12.627Z,13.70
2023-01-18T02:05:43.934Z,14.20
2023-01-18T02:08:22.677Z,16.03
2023-01-18T02:10:51.125Z,12.17
2023-01-18T02:13:20.463Z,21.13
2023-01-18T02:15:57.167Z,13.50
2023-01-18T02:18:29.195Z,15.60
2023-01-18T02:21:12.986Z,18.33
2023-01-18T02:24:16.773Z,15.07
2023-01-18T02:26:57.952Z,11.73
2023-01-18T02:29:39.520Z,11.40
2023-01-18T02:32:21.232Z,16.77
2023-01-18T02:34:51.058Z,16.57
2023-01-18T02:37:27.224Z,14.57
2023-01-18T02:40:12.772Z,14.10
2023-01-18T02:43:01.154Z,12.93
2023-01-18T02:46:04.189Z,12.13
2023-01-18T02:48:35.987Z,15.00
2023-01-18T02:51:04.571Z,18.00
2023-01-18T02:53:34.579Z,14.93
2023-01-18T02:56:07.861Z,15.07
2023-01-18T02:58:40.077Z,14.50
2023-01-18T03:01:13.377Z,14.07
2023-01-18T03:03:44.011Z,15.60
2023-01-18T03:06:12.008Z,14.20
2023-01-18T03:08:43.988Z,16.83
2023-01-18T03:11:17.549Z,14.43
2023-01-18T03:13:59.740Z,18.23
2023-01-18T03:16:40.682Z,12.93
2023-01-18T03:19:33.021Z,14.33
2023-01-18T03:22:03.624Z,14.03
2023-01-18T03:24:31.119Z,16.70
2023-01-18T03:27:17.856Z,17.80
2023-01-18T03:30:05.509Z,17.77
2023-01-18T03:32:53.839Z,18.10
2023-01-18T03:35:27.192Z,18.70
2023-01-18T03:37:57.451Z,16.57
2023-01-18T03:40:28.722Z,16.63
2023-01-18T03:43:03.062Z,17.60
2023-01-18T03:45:33.999Z,18.50
2023-01-18T03:48:04.268Z,20.13
2023-01-18T03:50:43.763Z,18.30
2023-01-18T03:53:17.696Z,18.23
2023-01-18T03:55:50.520Z,16.67
2023-01-18T03:58:23.851Z,18.70
2023-01-18T04:00:53.501Z,17.23
2023-01-18T04:03:22.965Z,19.93
2023-01-18T04:05:51.417Z,17.50
2023-01-18T04:08:21.951Z,20.10
2023-01-18T04:10:50.026Z,19.47
2023-01-18T04:13:18.012Z,19.13
2023-01-18T04:15:45.997Z,24.93
2023-01-18T04:18:14.029Z,19.47
2023-01-18T04:20:43.458Z,19.93
2023-01-18T04:23:11.440Z,22.50
2023-01-18T04:25:40.707Z,19.93
2023-01-18T04:28:09.274Z,19.73
2023-01-18T04:30:38.669Z,21.93
2023-01-18T04:33:06.697Z,19.63
2023-01-18T04:35:36.225Z,17.77
2023-01-18T04:38:05.604Z,17.50
2023-01-18T04:40:33.812Z,20.27
2023-01-18T04:43:01.792Z,20.23
2023-01-18T04:45:29.787Z,19.93
2023-01-18T04:47:58.052Z,17.20
2023-01-18T04:50:26.091Z,19.57
2023-01-18T04:52:54.024Z,19.57
2023-01-18T04:55:23.390Z,16.73
2023-01-18T04:57:57.542Z,20.57
2023-01-18T05:00:25.973Z,21.17
2023-01-18T05:02:53.993Z,19.87
2023-01-18T05:05:22.170Z,22.77
2023-01-18T05:07:50.178Z,23.53
2023-01-18T05:10:18.414Z,18.90
2023-01-18T05:12:47.712Z,22.57
2023-01-18T05:15:15.796Z,20.07
2023-01-18T05:17:43.736Z,22.73
2023-01-18T05:20:13.268Z,20.97
2023-01-18T05:22:41.191Z,19.43
2023-01-18T05:25:10.099Z,19.67
2023-01-18T05:27:38.042Z,19.40
2023-01-18T05:30:09.585Z,20.90
2023-01-18T05:32:37.579Z,22.13
2023-01-18T05:35:06.122Z,21.33
2023-01-18T05:37:34.246Z,19.93
2023-01-18T05:40:02.239Z,23.93
2023-01-18T05:42:30.207Z,21.57
2023-01-18T05:44:58.249Z,19.40
2023-01-18T05:47:27.491Z,19.53
2023-01-18T05:49:57.811Z,18.40
2023-01-18T05:52:25.775Z,21.13
2023-01-18T05:54:53.679Z,19.30
2023-01-18T05:57:21.669Z,18.77
2023-01-18T05:59:49.716Z,21.03
2023-01-18T06:02:18.360Z,19.33
2023-01-18T06:04:48.572Z,23.70
2023-01-18T06:07:16.824Z,17.93
2023-01-18T06:09:44.771Z,18.47
2023-01-18T06:12:12.716Z,21.73
2023-01-18T06:14:40.665Z,21.47
2023-01-18T06:17:08.925Z,20.23
2023-01-18T06:19:37.144Z,19.10
2023-01-18T06:22:06.536Z,24.30
2023-01-18T06:24:34.556Z,20.23
2023-01-18T06:27:04.050Z,20.03
2023-01-18T06:29:32.310Z,17.30
2023-01-18T06:32:00.601Z,21.80
2023-01-18T06:34:30.363Z,18.63
2023-01-18T06:36:58.472Z,19.13
2023-01-18T06:39:27.793Z,18.87
2023-01-18T06:41:55.973Z,19.20
2023-01-18T06:44:23.911Z,20.90
2023-01-18T06:46:52.022Z,19.37
2023-01-18T06:49:20.029Z,17.70
2023-01-18T06:51:47.994Z,22.07
2023-01-18T06:54:16.662Z,23.13
2023-01-18T06:56:46.081Z,21.77
2023-01-18T06:59:14.108Z,19.43
2023-01-18T07:01:42.227Z,19.13
2023-01-18T07:04:10.495Z,21.08
2023-01-18T07:06:38.460Z,18.53
2023-01-18T07:09:08.134Z,20.00
2023-01-18T07:11:36.910Z,21.33
2023-01-18T07:14:06.258Z,22.87
2023-01-18T07:16:34.289Z,22.60
2023-01-18T07:19:03.882Z,20.87
2023-01-18T07:21:32.976Z,22.30
2023-01-18T07:24:01.035Z,19.13
2023-01-18T07:26:29.104Z,22.97
2023-01-18T07:28:57.067Z,20.33
2023-01-18T07:31:27.495Z,21.13
2023-01-18T07:33:55.596Z,18.70
2023-01-18T07:36:23.619Z,18.90
2023-01-18T07:38:52.252Z,19.90
2023-01-18T07:41:20.428Z,19.63
2023-01-18T07:43:48.376Z,19.97
2023-01-18T07:46:18.894Z,19.83
2023-01-18T07:48:49.010Z,20.17
2023-01-18T07:51:17.391Z,25.07
2023-01-18T07:53:45.641Z,20.73
2023-01-18T07:56:15.607Z,18.57
2023-01-18T07:58:44.348Z,18.93
2023-01-18T08:01:14.939Z,23.47
2023-01-18T08:03:43.688Z,22.97
2023-01-18T08:06:13.852Z,20.80
2023-01-18T08:08:41.952Z,19.53
2023-01-18T08:11:11.148Z,19.67
2023-01-18T08:13:39.505Z,17.43
2023-01-18T08:16:11.081Z,23.00
2023-01-18T08:18:39.678Z,18.47
2023-01-18T08:21:11.564Z,19.23
2023-01-18T08:23:41.281Z,19.87
2023-01-18T08:26:10.495Z,19.20
2023-01-18T08:28:39.414Z,19.57
2023-01-18T08:31:10.277Z,19.97
2023-01-18T08:33:39.961Z,23.93
2023-01-18T08:36:11.442Z,18.80
2023-01-18T08:38:41.122Z,18.40
2023-01-18T08:41:10.194Z,18.73
2023-01-18T08:43:38.419Z,19.90
2023-01-18T08:46:06.744Z,21.17
2023-01-18T08:48:34.843Z,23.17
2023-01-18T08:51:03.706Z,20.00
2023-01-18T08:53:32.604Z,18.57
2023-01-18T08:56:05.752Z,20.80
2023-01-18T08:58:34.261Z,19.07
2023-01-18T09:01:06.182Z,20.73
2023-01-18T09:03:34.285Z,21.57
2023-01-18T09:06:02.657Z,19.63
2023-01-18T09:08:31.575Z,19.93
2023-01-18T09:11:04.310Z,19.57
2023-01-18T09:13:32.654Z,19.93
2023-01-18T09:16:01.353Z,18.37
2023-01-18T09:18:30.039Z,19.97
2023-01-18T09:20:58.211Z,20.23
2023-01-18T09:23:26.585Z,21.00
2023-01-18T09:26:04.779Z,17.83
2023-01-18T09:28:33.543Z,18.47
2023-01-18T09:31:02.575Z,18.23
2023-01-18T09:33:37.506Z,16.63
2023-01-18T09:36:09.726Z,17.60
2023-01-18T09:38:38.726Z,16.63
2023-01-18T09:41:16.615Z,18.33
2023-01-18T09:43:49.149Z,16.80
2023-01-18T09:46:20.729Z,19.17
2023-01-18T09:48:54.136Z,18.73
2023-01-18T09:51:24.771Z,17.00
2023-01-18T09:54:09.793Z,16.60
2023-01-18T09:56:44.803Z,16.37
2023-01-18T09:59:22.740Z,19.67
2023-01-18T10:01:54.396Z,15.73
2023-01-18T10:04:30.900Z,17.10
2023-01-18T10:07:01.704Z,16.67
2023-01-18T10:09:32.542Z,18.77
2023-01-18T10:12:04.071Z,17.70
2023-01-18T10:14:44.393Z,15.07
2023-01-18T10:17:17.685Z,14.83
2023-01-18T10:19:46.027Z,16.40
2023-01-18T10:22:21.774Z,15.80
2023-01-18T10:24:57.486Z,15.37
2023-01-18T10:27:48.417Z,20.20
2023-01-18T10:30:40.223Z,17.43
2023-01-18T10:33:17.637Z,15.80
2023-01-18T10:35:49.937Z,15.93
2023-01-18T10:38:20.998Z,18.07
2023-01-18T10:40:52.312Z,16.83
2023-01-18T10:43:25.170Z,15.47
2023-01-18T10:45:54.488Z,19.73
2023-01-18T10:48:28.833Z,16.27
2023-01-18T10:50:58.642Z,16.80
2023-01-18T10:53:31.364Z,15.03
2023-01-18T10:56:13.927Z,16.43
2023-01-18T10:58:46.289Z,15.07
2023-01-18T11:01:17.557Z,15.03
2023-01-18T11:03:48.583Z,12.80
2023-01-18T11:06:17.249Z,13.60
2023-01-18T11:08:45.473Z,13.30
2023-01-18T11:11:50.973Z,12.40
2023-01-18T11:14:29.392Z,14.07
2023-01-18T11:17:02.192Z,16.00
2023-01-18T11:19:30.611Z,15.73
2023-01-18T11:21:58.615Z,15.87
2023-01-18T11:24:30.583Z,16.50
2023-01-18T11:27:02.067Z,16.07
2023-01-18T11:29:35.307Z,14.17
2023-01-18T11:32:06.624Z,11.87
2023-01-18T11:34:36.853Z,14.63
2023-01-18T11:37:25.589Z,12.20
2023-01-18T11:39:53.592Z,11.60
2023-01-18T11:42:25.431Z,13.90
2023-01-18T11:45:12.005Z,12.83
2023-01-18T11:47:52.125Z,12.87
2023-01-18T11:50:31.510Z,12.07
2023-01-18T11:53:10.481Z,11.73
2023-01-18T11:55:46.546Z,11.73
2023-01-18T11:58:23.556Z,12.83
2023-01-18T12:01:03.675Z,13.53
2023-01-18T12:03:46.706Z,14.87
2023-01-18T12:06:23.879Z,9.97
2023-01-18T12:09:06.288Z,11.93
2023-01-18T12:11:46.032Z,11.90
2023-01-18T12:14:29.844Z,11.57
2023-01-18T12:17:14.631Z,12.47
2023-01-18T12:19:54.031Z,9.67
2023-01-18T12:22:49.588Z,11.33
2023-01-18T12:25:26.076Z,10.03
2023-01-18T12:28:25.870Z,12.10
2023-01-18T12:31:05.983Z,9.43
2023-01-18T12:33:47.666Z,7.63
2023-01-18T12:36:29.843Z,10.47
2023-01-18T12:38:58.433Z,8.80
2023-01-18T12:41:54.949Z,9.17
2023-01-18T12:44:57.951Z,9.63
2023-01-18T12:47:35.145Z,6.93
2023-01-18T12:50:15.168Z,7.03
2023-01-18T12:52:49.116Z,9.17
2023-01-18T12:55:21.221Z,8.27
2023-01-18T12:57:52.491Z,7.43
2023-01-18T13:00:26.013Z,6.93
2023-01-18T13:02:57.788Z,11.10
2023-01-18T13:05:35.118Z,6.57
2023-01-18T13:08:09.196Z,8.57
2023-01-18T13:10:39.033Z,7.50
2023-01-18T13:13:08.062Z,8.47
2023-01-18T13:15:41.257Z,7.27
2023-01-18T13:18:15.793Z,7.87
2023-01-18T13:21:05.284Z,5.80
2023-01-18T13:23:45.059Z,7.17
2023-01-18T13:26:23.175Z,7.07
2023-01-18T13:29:16.219Z,6.60
2023-01-18T13:31:45.215Z,6.40
2023-01-18T13:34:25.900Z,6.57
2023-01-18T13:37:09.054Z,5.80
2023-01-18T13:39:47.242Z,8.57
2023-01-18T13:42:36.908Z,6.23
2023-01-18T13:45:17.023Z,4.57
2023-01-18T13:47:57.827Z,5.37
2023-01-18T13:50:48.869Z,6.33
2023-01-18T13:53:24.322Z,6.80
2023-01-18T13:56:27.510Z,5.97
2023-01-18T13:59:01.431Z,6.13
2023-01-18T14:01:33.350Z,5.67
2023-01-18T14:04:10.840Z,6.27
2023-01-18T14:06:43.868Z,5.80
2023-01-18T14:09:15.985Z,6.97
2023-01-18T14:11:53.037Z,6.00
2023-01-18T14:14:31.081Z,6.50
2023-01-18T14:17:08.064Z,5.77
2023-01-18T14:19:59.706Z,5.40
2023-01-18T14:22:40.060Z,4.73
2023-01-18T14:25:29.840Z,4.70
2023-01-18T14:28:05.594Z,5.07
2023-01-18T14:30:35.904Z,6.07
2023-01-18T14:33:10.328Z,4.27
2023-01-18T14:35:38.884Z,3.93
2023-01-18T14:38:18.295Z,5.50
2023-01-18T14:40:50.475Z,5.00
2023-01-18T14:43:25.849Z,5.40
2023-01-18T14:46:01.486Z,4.03
2023-01-18T14:48:31.954Z,5.80
2023-01-18T14:51:00.792Z,4.83
2023-01-18T14:53:31.474Z,5.47
2023-01-18T14:56:06.995Z,8.23
2023-01-18T14:58:38.948Z,6.37
2023-01-18T15:01:09.387Z,5.97
2023-01-18T15:03:37.728Z,4.90
2023-01-18T15:06:13.109Z,4.83
2023-01-18T15:08:42.352Z,6.70
2023-01-18T15:11:12.452Z,5.23
2023-01-18T15:13:47.717Z,3.60
2023-01-18T15:16:18.757Z,6.20
2023-01-18T15:18:48.691Z,5.40
2023-01-18T15:21:22.152Z,5.50
2023-01-18T15:23:52.462Z,4.30
2023-01-18T15:26:37.996Z,6.47
2023-01-18T15:29:15.386Z,6.30
2023-01-18T15:31:52.673Z,4.97
2023-01-18T15:34:28.239Z,9.33
2023-01-18T15:36:58.038Z,10.13
2023-01-18T15:39:26.814Z,7.23
2023-01-18T15:41:57.965Z,9.30
2023-01-18T15:44:36.923Z,7.60
2023-01-18T15:47:16.575Z,10.07
2023-01-18T15:49:46.827Z,5.13
2023-01-18T15:52:15.241Z,5.47
2023-01-18T15:54:43.848Z,5.43
2023-01-18T15:57:15.835Z,6.37
2023-01-18T15:59:44.011Z,7.20
2023-01-18T16:02:18.863Z,8.33
2023-01-18T16:04:47.125Z,8.23
2023-01-18T16:07:42.891Z,8.47
2023-01-18T16:10:27.907Z,8.67
2023-01-18T16:13:13.021Z,6.90
2023-01-18T16:15:41.583Z,6.83
2023-01-18T16:18:14.512Z,7.70
2023-01-18T16:20:42.632Z,8.30
2023-01-18T16:23:17.578Z,9.77
2023-01-18T16:25:51.962Z,7.93
2023-01-18T16:28:24.548Z,7.63
2023-01-18T16:30:53.818Z,8.70
2023-01-18T16:33:22.417Z,8.37
2023-01-18T16:35:50.656Z,12.27
2023-01-18T16:38:20.597Z,8.47
2023-01-18T16:40:50.747Z,6.73
2023-01-18T16:43:24.772Z,6.53
2023-01-18T16:45:55.593Z,7.70
2023-01-18T16:48:25.415Z,7.43
2023-01-18T16:50:55.716Z,7.27
2023-01-18T16:53:24.112Z,6.57
2023-01-18T16:55:52.699Z,7.23
2023-01-18T16:58:21.434Z,7.63
2023-01-18T17:01:00.097Z,8.13
2023-01-18T17:03:28.533Z,7.00
2023-01-18T17:05:56.527Z,6.30
2023-01-18T17:08:24.575Z,7.60
2023-01-18T17:10:54.498Z,8.73
2023-01-18T17:13:23.695Z,7.53
2023-01-18T17:15:54.372Z,6.47
2023-01-18T17:18:25.800Z,8.63
2023-01-18T17:20:54.433Z,8.90
2023-01-18T17:23:22.906Z,7.97
2023-01-18T17:25:50.926Z,8.17
2023-01-18T17:28:20.108Z,8.77
2023-01-18T17:30:50.340Z,9.63
2023-01-18T17:33:21.275Z,8.30
2023-01-18T17:35:50.129Z,11.87
2023-01-18T17:38:24.264Z,9.50
2023-01-18T17:40:53.370Z,12.57
2023-01-18T17:43:32.985Z,10.93
2023-01-18T17:46:03.942Z,10.27
2023-01-18T17:48:33.385Z,9.20
2023-01-18T17:51:01.455Z,12.60
2023-01-18T17:53:29.503Z,13.27
2023-01-18T17:55:57.620Z,10.30
2023-01-18T17:58:26.116Z,9.77
2023-01-18T18:00:55.233Z,12.57
2023-01-18T18:03:23.422Z,13.63
2023-01-18T18:05:57.964Z,12.30
2023-01-18T18:08:26.119Z,12.40
2023-01-18T18:10:55.187Z,12.37
2023-01-18T18:13:24.330Z,9.93
2023-01-18T18:15:52.869Z,11.00
2023-01-18T18:18:23.978Z,11.07
2023-01-18T18:20:58.161Z,11.73
2023-01-18T18:23:26.926Z,10.77
2023-01-18T18:25:55.580Z,9.93
2023-01-18T18:28:24.397Z,12.10
2023-01-18T18:30:52.971Z,15.53
2023-01-18T18:33:21.972Z,10.33
2023-01-18T18:35:51.164Z,12.83
2023-01-18T18:38:22.974Z,10.60
2023-01-18T18:40:51.344Z,11.17
2023-01-18T18:43:20.518Z,11.37
2023-01-18T18:45:54.448Z,10.60
2023-01-18T18:48:39.571Z,12.10
2023-01-18T18:51:07.761Z,10.87
2023-01-18T18:53:39.224Z,11.03
2023-01-18T18:56:10.607Z,10.57
2023-01-18T18:58:39.175Z,11.80
2023-01-18T19:01:08.565Z,9.23
2023-01-18T19:03:36.804Z,10.13
2023-01-18T19:06:04.965Z,10.70
2023-01-18T19:08:33.001Z,10.23
2023-01-18T19:11:02.315Z,11.20
2023-01-18T19:13:30.265Z,11.67
2023-01-18T19:15:58.345Z,13.50
2023-01-18T19:18:26.569Z,12.30
2023-01-18T19:20:54.594Z,12.43
2023-01-18T19:23:22.565Z,12.63
2023-01-18T19:25:50.645Z,12.57
2023-01-18T19:28:20.288Z,13.80
2023-01-18T19:30:48.506Z,11.60
2023-01-18T19:33:16.651Z,10.00
2023-01-18T19:35:46.653Z,11.73
2023-01-18T19:38:15.523Z,11.07
2023-01-18T19:40:43.517Z,11.43
2023-01-18T19:43:11.473Z,13.07
2023-01-18T19:45:41.250Z,11.27
2023-01-18T19:48:09.340Z,10.17
2023-01-18T19:50:37.676Z,11.87
2023-01-18T19:53:05.690Z,11.73
2023-01-18T19:55:36.348Z,13.90
2023-01-18T19:58:04.444Z,13.33
2023-01-18T20:00:32.424Z,11.43
2023-01-18T20:03:02.158Z,11.33
2023-01-18T20:05:30.388Z,11.20
2023-01-18T20:07:58.363Z,11.33
2023-01-18T20:10:26.355Z,10.50
2023-01-18T20:12:54.359Z,10.97
2023-01-18T20:15:22.969Z,13.20
2023-01-18T20:17:50.920Z,10.30
2023-01-18T20:20:31.333Z,12.97
2023-01-18T20:23:00.892Z,11.20
2023-01-18T20:25:29.557Z,11.23
2023-01-18T20:27:57.571Z,12.73
2023-01-18T20:30:25.587Z,12.07
2023-01-18T20:32:53.508Z,12.13
2023-01-18T20:35:22.967Z,14.40
2023-01-18T20:37:52.034Z,12.53
2023-01-18T20:40:20.221Z,11.70
2023-01-18T20:42:48.176Z,12.53
2023-01-18T20:45:16.171Z,13.87
2023-01-18T20:47:44.799Z,12.50
2023-01-18T20:50:13.068Z,12.83
2023-01-18T20:52:42.858Z,10.73
2023-01-18T20:55:13.148Z,11.97
2023-01-18T20:57:41.106Z,14.33
2023-01-18T21:00:12.400Z,15.50
2023-01-18T21:02:41.458Z,10.13
2023-01-18T21:05:10.212Z,13.53
2023-01-18T21:07:39.408Z,12.33
2023-01-18T21:10:11.837Z,11.97
2023-01-18T21:12:41.259Z,12.83
2023-01-18T21:15:10.382Z,11.93
2023-01-18T21:17:39.691Z,13.77
2023-01-18T21:20:08.852Z,11.53
2023-01-18T21:22:36.917Z,11.10
2023-01-18T21:25:05.406Z,12.37
2023-01-18T21:27:36.528Z,10.50
2023-01-18T21:30:05.549Z,11.33
2023-01-18T21:32:33.502Z,14.23
2023-01-18T21:35:01.489Z,12.80
2023-01-18T21:37:29.447Z,11.67
2023-01-18T21:39:58.169Z,13.47
2023-01-18T21:42:44.045Z,13.77
2023-01-18T21:45:31.224Z,14.17
2023-01-18T21:48:00.834Z,14.50
2023-01-18T21:50:46.523Z,14.47
2023-01-18T21:53:33.259Z,14.07
2023-01-18T21:56:01.405Z,12.67
2023-01-18T21:58:58.445Z,12.77
2023-01-18T22:01:34.285Z,16.97
2023-01-18T22:04:21.079Z,16.07
2023-01-18T22:06:49.089Z,11.17
2023-01-18T22:09:17.410Z,11.90
2023-01-18T22:11:45.462Z,14.27
2023-01-18T22:14:13.740Z,12.40
2023-01-18T22:16:43.562Z,12.30
2023-01-18T22:19:12.064Z,12.20
2023-01-18T22:21:40.109Z,14.17
2023-01-18T22:24:08.582Z,13.90
2023-01-18T22:26:36.633Z,13.63
2023-01-18T22:29:05.028Z,15.03
2023-01-18T22:31:33.234Z,13.00
2023-01-18T22:34:04.551Z,13.30
2023-01-18T22:36:33.493Z,13.00
2023-01-18T22:39:01.523Z,17.17
2023-01-18T22:41:30.132Z,14.07
2023-01-18T22:43:58.456Z,13.40
2023-01-18T22:46:26.493Z,16.97
2023-01-18T22:48:54.538Z,15.77
2023-01-18T22:51:24.579Z,14.47
2023-01-18T22:53:53.441Z,13.60
2023-01-18T22:56:23.277Z,15.97
2023-01-18T22:58:51.955Z,15.80
2023-01-18T23:01:22.296Z,14.33
2023-01-18T23:03:51.022Z,18.13
2023-01-18T23:06:20.347Z,16.30
2023-01-18T23:08:50.264Z,16.57
2023-01-18T23:11:19.924Z,15.17
2023-01-18T23:14:09.961Z,15.07
2023-01-18T23:16:56.296Z,14.27
2023-01-18T23:19:26.227Z,14.70
2023-01-18T23:21:55.392Z,15.33
2023-01-18T23:24:25.125Z,14.67
2023-01-18T23:26:53.347Z,14.30
2023-01-18T23:29:21.397Z,15.03
2023-01-18T23:31:49.319Z,19.27
2023-01-18T23:34:17.443Z,15.37
2023-01-18T23:36:45.442Z,15.40
2023-01-18T23:39:31.088Z,16.63
2023-01-18T23:42:17.971Z,16.60
2023-01-18T23:45:03.596Z,14.57
2023-01-18T23:47:48.915Z,15.07
2023-01-18T23:50:35.256Z,19.67
2023-01-18T23:53:20.924Z,17.63
2023-01-18T23:55:52.806Z,18.30
2023-01-18T23:58:22.129Z,16.53
